createdAt,value
2018-07-07T00:00:35.481Z,10.17
2018-07-07T00:03:05.325Z,10.20
2018-07-07T00:05:38.593Z,9.70
2018-07-07T00:08:09.223Z,9.90
2018-07-07T00:10:41.092Z,9.47
2018-07-07T00:13:12.891Z,10.10
2018-07-07T00:15:42.944Z,10.40
2018-07-07T00:18:12.742Z,8.83
2018-07-07T00:20:46.339Z,9.97
2018-07-07T00:23:15.705Z,8.80
2018-07-07T00:25:45.605Z,10.00
2018-07-07T00:28:17.282Z,8.80
2018-07-07T00:30:48.088Z,9.17
2018-07-07T00:33:18.906Z,10.13
2018-07-07T00:35:54.202Z,8.60
2018-07-07T00:38:24.629Z,9.10
2018-07-07T00:41:00.176Z,9.47
2018-07-07T00:43:28.880Z,8.90
2018-07-07T00:45:58.617Z,8.90
2018-07-07T00:48:33.981Z,10.07
2018-07-07T00:51:03.738Z,10.13
2018-07-07T00:53:32.493Z,8.87
2018-07-07T00:56:02.400Z,10.47
2018-07-07T00:58:32.923Z,9.40
2018-07-07T01:01:02.193Z,9.70
2018-07-07T01:03:33.134Z,10.00
2018-07-07T01:06:03.374Z,9.20
2018-07-07T01:08:32.788Z,9.33
2018-07-07T01:11:03.763Z,8.33
2018-07-07T01:13:35.003Z,8.00
2018-07-07T01:16:05.333Z,8.57
2018-07-07T01:18:34.734Z,8.00
2018-07-07T01:21:05.513Z,8.47
2018-07-07T01:23:36.090Z,7.47
2018-07-07T01:26:07.186Z,7.43
2018-07-07T01:28:41.495Z,7.60
2018-07-07T01:31:21.825Z,6.70
2018-07-07T01:33:51.575Z,6.60
2018-07-07T01:36:22.328Z,7.80
2018-07-07T01:38:53.282Z,7.73
2018-07-07T01:41:28.913Z,8.00
2018-07-07T01:44:03.092Z,8.30
2018-07-07T01:46:37.233Z,7.97
2018-07-07T01:49:13.380Z,8.53
2018-07-07T01:51:42.794Z,7.57
2018-07-07T01:54:13.777Z,8.47
2018-07-07T01:56:48.829Z,7.50
2018-07-07T01:59:18.327Z,7.60
2018-07-07T02:01:48.753Z,7.20
2018-07-07T02:04:19.826Z,8.10
2018-07-07T02:06:54.122Z,7.50
2018-07-07T02:09:23.268Z,7.70
2018-07-07T02:11:53.802Z,7.03
2018-07-07T02:14:24.785Z,7.57
2018-07-07T02:16:54.383Z,8.17
2018-07-07T02:19:25.607Z,7.30
2018-07-07T02:21:58.976Z,7.13
2018-07-07T02:24:32.949Z,6.90
2018-07-07T02:27:03.922Z,6.23
2018-07-07T02:29:43.439Z,6.97
2018-07-07T02:32:19.418Z,6.80
2018-07-07T02:34:49.739Z,7.23
2018-07-07T02:37:20.307Z,6.47
2018-07-07T02:39:52.381Z,6.90
2018-07-07T02:42:29.661Z,8.30
2018-07-07T02:45:03.073Z,7.40
2018-07-07T02:47:37.035Z,7.50
2018-07-07T02:50:06.186Z,6.60
2018-07-07T02:52:40.448Z,6.67
2018-07-07T02:55:10.689Z,6.07
2018-07-07T02:57:41.280Z,6.70
2018-07-07T03:00:11.875Z,6.90
2018-07-07T03:02:42.427Z,6.60
2018-07-07T03:05:11.572Z,7.00
2018-07-07T03:07:47.014Z,6.70
2018-07-07T03:10:16.714Z,6.03
2018-07-07T03:12:47.525Z,6.60
2018-07-07T03:15:21.009Z,6.60
2018-07-07T03:17:51.426Z,6.03
2018-07-07T03:20:22.613Z,5.73
2018-07-07T03:22:51.924Z,6.20
2018-07-07T03:25:20.735Z,7.03
2018-07-07T03:27:56.103Z,6.80
2018-07-07T03:30:30.969Z,6.90
2018-07-07T03:33:00.300Z,6.50
2018-07-07T03:35:30.164Z,6.47
2018-07-07T03:37:59.918Z,6.77
2018-07-07T03:40:29.885Z,6.20
2018-07-07T03:43:01.291Z,6.77
2018-07-07T03:45:30.792Z,6.47
2018-07-07T03:48:02.705Z,5.67
2018-07-07T03:50:33.294Z,5.53
2018-07-07T03:53:03.599Z,6.50
2018-07-07T03:55:37.305Z,6.60
2018-07-07T03:58:06.800Z,6.27
2018-07-07T04:00:36.897Z,7.33
2018-07-07T04:03:12.147Z,6.40
2018-07-07T04:05:42.904Z,6.80
2018-07-07T04:08:14.748Z,6.67
2018-07-07T04:10:44.854Z,6.93
2018-07-07T04:13:13.561Z,6.80
2018-07-07T04:15:47.741Z,6.90
2018-07-07T04:18:20.958Z,8.00
2018-07-07T04:20:54.398Z,7.00
2018-07-07T04:23:29.069Z,6.73
2018-07-07T04:26:03.685Z,7.67
2018-07-07T04:28:34.997Z,8.13
2018-07-07T04:31:13.499Z,6.77
2018-07-07T04:33:44.104Z,7.67
2018-07-07T04:36:14.355Z,7.73
2018-07-07T04:38:44.484Z,7.13
2018-07-07T04:41:14.389Z,8.30
2018-07-07T04:43:45.546Z,7.87
2018-07-07T04:46:20.346Z,7.77
2018-07-07T04:48:51.885Z,7.27
2018-07-07T04:51:22.834Z,7.97
2018-07-07T04:53:52.267Z,7.27
2018-07-07T04:56:27.396Z,7.87
2018-07-07T04:58:57.625Z,7.50
2018-07-07T05:01:27.430Z,8.00
2018-07-07T05:03:58.820Z,7.80
2018-07-07T05:06:30.353Z,7.57
2018-07-07T05:09:01.821Z,8.20
2018-07-07T05:11:30.857Z,8.30
2018-07-07T05:14:02.095Z,8.13
2018-07-07T05:16:33.743Z,8.13
2018-07-07T05:19:05.443Z,8.70
2018-07-07T05:21:35.670Z,8.27
2018-07-07T05:24:08.392Z,8.60
2018-07-07T05:26:39.677Z,7.97
2018-07-07T05:29:09.567Z,8.97
2018-07-07T05:31:43.876Z,8.10
2018-07-07T05:34:17.489Z,8.50
2018-07-07T05:36:48.752Z,7.90
2018-07-07T05:39:22.253Z,8.43
2018-07-07T05:41:50.755Z,9.03
2018-07-07T05:44:25.910Z,7.70
2018-07-07T05:46:55.467Z,8.13
2018-07-07T05:49:26.720Z,8.43
2018-07-07T05:51:55.215Z,8.67
2018-07-07T05:54:25.772Z,8.63
2018-07-07T05:56:55.296Z,7.97
2018-07-07T05:59:26.681Z,8.33
2018-07-07T06:01:55.754Z,7.70
2018-07-07T06:04:25.403Z,7.57
2018-07-07T06:06:55.820Z,8.03
2018-07-07T06:09:25.803Z,7.57
2018-07-07T06:12:00.145Z,8.13
2018-07-07T06:14:35.152Z,7.53
2018-07-07T06:17:13.605Z,8.40
2018-07-07T06:19:43.654Z,8.27
2018-07-07T06:22:16.068Z,7.10
2018-07-07T06:24:46.185Z,8.13
2018-07-07T06:27:20.668Z,7.70
2018-07-07T06:29:50.102Z,7.80
2018-07-07T06:32:20.209Z,7.80
2018-07-07T06:34:52.068Z,8.07
2018-07-07T06:37:21.212Z,7.10
2018-07-07T06:39:50.555Z,7.43
2018-07-07T06:42:19.888Z,12.70
2018-07-07T06:44:49.933Z,7.07
2018-07-07T06:47:19.270Z,6.83
2018-07-07T06:49:50.913Z,6.97
2018-07-07T06:52:20.393Z,8.00
2018-07-07T06:54:56.781Z,6.87
2018-07-07T06:57:26.950Z,8.50
2018-07-07T06:59:58.364Z,8.70
2018-07-07T07:02:28.589Z,6.93
2018-07-07T07:04:58.455Z,6.87
2018-07-07T07:07:28.931Z,7.20
2018-07-07T07:09:58.647Z,7.10
2018-07-07T07:12:36.642Z,6.73
2018-07-07T07:15:06.683Z,6.70
2018-07-07T07:17:37.956Z,7.20
2018-07-07T07:20:11.762Z,7.63
2018-07-07T07:22:41.741Z,7.33
2018-07-07T07:25:13.145Z,8.87
2018-07-07T07:27:42.377Z,7.67
2018-07-07T07:30:13.950Z,6.77
2018-07-07T07:32:43.674Z,7.50
2018-07-07T07:35:12.746Z,7.80
2018-07-07T07:37:42.246Z,7.03
2018-07-07T07:40:13.230Z,6.33
2018-07-07T07:42:42.598Z,6.80
2018-07-07T07:45:12.849Z,6.57
2018-07-07T07:47:49.206Z,7.07
2018-07-07T07:50:18.083Z,6.10
2018-07-07T07:52:48.100Z,5.37
2018-07-07T07:55:20.691Z,6.23
2018-07-07T07:57:51.494Z,5.47
2018-07-07T08:00:20.262Z,6.73
2018-07-07T08:02:51.136Z,18.60
2018-07-07T08:05:21.502Z,5.13
2018-07-07T08:07:53.118Z,4.80
2018-07-07T08:10:28.609Z,4.80
2018-07-07T08:12:59.395Z,5.87
2018-07-07T08:15:29.898Z,6.13
2018-07-07T08:18:00.408Z,5.20
2018-07-07T08:20:29.582Z,6.70
2018-07-07T08:22:58.784Z,4.97
2018-07-07T08:25:29.412Z,7.57
2018-07-07T08:28:00.201Z,6.13
2018-07-07T08:30:29.508Z,6.30
2018-07-07T08:33:00.512Z,6.50
2018-07-07T08:35:29.483Z,5.63
2018-07-07T08:38:05.869Z,5.40
2018-07-07T08:40:35.794Z,5.50
2018-07-07T08:43:05.980Z,4.87
2018-07-07T08:45:35.805Z,5.20
2018-07-07T08:48:04.856Z,4.03
2018-07-07T08:50:40.244Z,4.30
2018-07-07T08:53:16.893Z,4.10
2018-07-07T08:55:46.821Z,3.63
2018-07-07T08:58:16.838Z,3.90
2018-07-07T09:00:52.861Z,3.97
2018-07-07T09:03:30.710Z,7.73
2018-07-07T09:06:01.697Z,4.20
2018-07-07T09:08:33.716Z,4.23
2018-07-07T09:11:04.029Z,4.30
2018-07-07T09:13:34.587Z,3.97
2018-07-07T09:16:09.428Z,3.77
2018-07-07T09:18:38.144Z,4.00
2018-07-07T09:21:08.007Z,3.70
2018-07-07T09:23:37.292Z,4.00
2018-07-07T09:26:08.232Z,3.80
2018-07-07T09:28:37.249Z,3.73
2018-07-07T09:31:07.999Z,3.30
2018-07-07T09:33:37.302Z,3.43
2018-07-07T09:36:08.245Z,3.50
2018-07-07T09:38:38.999Z,3.63
2018-07-07T09:41:14.792Z,3.33
2018-07-07T09:43:45.716Z,3.30
2018-07-07T09:46:17.426Z,3.20
2018-07-07T09:48:53.573Z,3.57
2018-07-07T09:51:24.042Z,3.27
2018-07-07T09:53:54.393Z,3.33
2018-07-07T09:56:24.163Z,3.40
2018-07-07T09:58:58.019Z,3.30
2018-07-07T10:01:32.327Z,7.27
2018-07-07T10:04:01.125Z,3.90
2018-07-07T10:06:34.212Z,4.13
2018-07-07T10:09:06.905Z,3.37
2018-07-07T10:11:36.180Z,3.03
2018-07-07T10:14:05.804Z,3.70
2018-07-07T10:16:36.089Z,3.60
2018-07-07T10:19:06.190Z,3.60
2018-07-07T10:21:40.257Z,3.23
2018-07-07T10:24:13.720Z,2.87
2018-07-07T10:26:47.777Z,3.30
2018-07-07T10:29:21.998Z,3.40
2018-07-07T10:31:51.711Z,3.17
2018-07-07T10:34:23.136Z,3.20
2018-07-07T10:36:52.351Z,2.93
2018-07-07T10:39:24.476Z,3.23
2018-07-07T10:41:54.232Z,3.30
2018-07-07T12:03:32.219Z,4.90
2018-07-07T12:06:08.588Z,3.60
2018-07-07T12:08:38.121Z,3.67
2018-07-07T12:11:08.140Z,4.07
2018-07-07T12:13:37.761Z,3.87
2018-07-07T12:16:10.223Z,3.30
2018-07-07T12:18:41.982Z,3.30
2018-07-07T12:21:12.036Z,3.20
2018-07-07T12:23:44.001Z,3.53
2018-07-07T12:26:15.016Z,3.47
2018-07-07T12:28:49.806Z,3.23
2018-07-07T12:31:23.836Z,3.47
2018-07-07T12:33:52.611Z,3.13
2018-07-07T12:36:23.687Z,3.10
2018-07-07T12:38:53.201Z,3.03
2018-07-07T12:41:22.472Z,3.20
2018-07-07T12:43:52.454Z,3.40
2018-07-07T12:46:22.872Z,3.30
2018-07-07T12:48:52.012Z,3.37
2018-07-07T12:51:31.252Z,3.23
2018-07-07T12:54:09.744Z,2.90
2018-07-07T12:56:41.076Z,2.93
2018-07-07T12:59:11.694Z,3.60
2018-07-07T13:01:41.894Z,3.60
2018-07-07T13:04:12.548Z,2.97
2018-07-07T13:06:47.400Z,3.20
2018-07-07T13:09:16.243Z,3.17
2018-07-07T13:11:50.684Z,3.07
2018-07-07T13:14:27.493Z,3.40
2018-07-07T13:16:57.696Z,5.53
2018-07-07T13:19:28.010Z,4.03
2018-07-07T13:21:58.549Z,3.50
2018-07-07T13:24:28.727Z,3.37
2018-07-07T13:26:57.586Z,2.80
2018-07-07T13:29:27.817Z,2.73
2018-07-07T13:32:03.633Z,3.00
2018-07-07T13:34:35.256Z,3.03
2018-07-07T13:37:05.750Z,3.17
2018-07-07T13:39:42.794Z,3.27
2018-07-07T13:42:13.121Z,3.60
2018-07-07T13:44:49.425Z,3.17
2018-07-07T13:47:19.571Z,3.40
2018-07-07T13:49:58.587Z,3.00
2018-07-07T13:52:38.528Z,3.53
2018-07-07T13:55:08.382Z,3.07
2018-07-07T13:57:39.137Z,3.13
2018-07-07T14:00:08.792Z,2.87
2018-07-07T14:02:39.977Z,2.67
2018-07-07T14:05:17.836Z,2.97
2018-07-07T14:07:46.596Z,2.83
2018-07-07T14:10:17.464Z,2.50
2018-07-07T14:12:48.409Z,2.50
2018-07-07T14:15:23.048Z,2.80
2018-07-07T14:17:54.297Z,2.60
2018-07-07T14:20:26.537Z,2.97
2018-07-07T14:22:56.743Z,2.57
2018-07-07T14:25:30.553Z,2.90
2018-07-07T14:27:59.991Z,5.00
2018-07-07T14:30:34.576Z,2.60
2018-07-07T14:33:03.294Z,2.50
2018-07-07T14:35:33.779Z,2.53
2018-07-07T14:38:03.202Z,2.23
2018-07-07T14:40:33.381Z,2.80
2018-07-07T14:43:07.709Z,2.60
2018-07-07T14:45:37.416Z,2.50
2018-07-07T14:48:16.719Z,2.83
2018-07-07T14:50:58.985Z,2.33
2018-07-07T14:53:29.605Z,2.43
2018-07-07T14:55:59.505Z,2.90
2018-07-07T14:58:29.659Z,2.70
2018-07-07T15:01:00.593Z,2.57
2018-07-07T15:03:30.490Z,2.60
2018-07-07T15:06:00.890Z,2.70
2018-07-07T15:08:39.115Z,2.90
2018-07-07T15:11:10.583Z,3.87
2018-07-07T15:13:49.924Z,2.83
2018-07-07T15:16:24.209Z,2.77
2018-07-07T15:18:55.767Z,2.93
2018-07-07T15:21:29.088Z,3.10
2018-07-07T15:23:58.896Z,2.70
2018-07-07T15:26:28.496Z,3.27
2018-07-07T15:28:58.289Z,2.20
2018-07-07T15:31:28.398Z,2.67
2018-07-07T15:34:02.098Z,3.00
2018-07-07T15:36:35.743Z,2.07
2018-07-07T15:39:07.220Z,2.67
2018-07-07T15:41:38.193Z,2.50
2018-07-07T15:44:07.761Z,2.97
2018-07-07T15:46:37.124Z,2.60
2018-07-07T15:49:07.694Z,2.37
2018-07-07T15:51:38.885Z,2.57
2018-07-07T15:54:08.657Z,2.30
2018-07-07T15:56:38.163Z,2.80
2018-07-07T15:59:06.933Z,2.17
2018-07-07T16:01:44.684Z,2.10
2018-07-07T16:04:17.659Z,2.30
2018-07-07T16:06:46.847Z,2.20
2018-07-07T16:09:21.516Z,2.23
2018-07-07T16:11:51.775Z,2.30
2018-07-07T16:14:23.629Z,2.20
2018-07-07T16:16:53.437Z,1.70
2018-07-07T16:19:22.650Z,2.30
2018-07-07T16:21:55.972Z,2.10
2018-07-07T16:24:25.341Z,2.00
2018-07-07T16:26:54.740Z,2.33
2018-07-07T16:29:27.023Z,2.00
2018-07-07T16:32:02.036Z,2.10
2018-07-07T16:34:38.486Z,2.30
2018-07-07T16:37:09.866Z,1.70
2018-07-07T16:39:39.364Z,4.97
2018-07-07T16:42:11.017Z,2.40
2018-07-07T16:44:41.924Z,2.13
2018-07-07T16:47:17.542Z,1.87
2018-07-07T16:49:48.825Z,2.33
2018-07-07T16:52:19.077Z,1.83
2018-07-07T16:54:49.899Z,2.00
2018-07-07T16:57:20.265Z,2.10
2018-07-07T16:59:51.769Z,2.33
2018-07-07T17:02:21.219Z,1.93
2018-07-07T17:04:52.626Z,2.23
2018-07-07T17:07:28.282Z,1.90
2018-07-07T17:10:00.083Z,2.03
2018-07-07T17:12:31.633Z,1.60
2018-07-07T17:15:04.333Z,1.90
2018-07-07T17:17:35.900Z,2.13
2018-07-07T17:20:07.609Z,2.07
2018-07-07T17:22:39.680Z,2.13
2018-07-07T17:25:09.097Z,2.43
2018-07-07T17:27:39.024Z,1.83
2018-07-07T17:30:08.830Z,2.20
2018-07-07T17:32:40.376Z,2.43
2018-07-07T17:35:10.462Z,2.20
2018-07-07T17:37:46.001Z,2.50
2018-07-07T17:40:16.648Z,2.27
2018-07-07T17:42:45.776Z,2.10
2018-07-07T17:45:15.690Z,2.30
2018-07-07T17:47:55.905Z,2.87
2018-07-07T17:50:24.963Z,2.30
2018-07-07T17:53:01.234Z,2.63
2018-07-07T17:55:36.287Z,2.30
2018-07-07T17:58:16.624Z,2.20
2018-07-07T18:00:48.843Z,2.20
2018-07-07T18:03:23.960Z,2.40
2018-07-07T18:05:54.243Z,1.93
2018-07-07T18:08:25.521Z,2.17
2018-07-07T18:10:55.545Z,2.20
2018-07-07T18:13:29.430Z,2.20
2018-07-07T18:16:00.110Z,1.73
2018-07-07T18:18:37.714Z,2.43
2018-07-07T18:21:06.938Z,2.33
2018-07-07T18:23:43.685Z,5.40
2018-07-07T18:26:17.014Z,13.80
2018-07-07T18:28:46.844Z,2.63
2018-07-07T18:31:16.558Z,1.87
2018-07-07T18:33:52.113Z,2.50
2018-07-07T18:36:23.564Z,2.17
2018-07-07T18:38:57.412Z,2.10
2018-07-07T18:41:29.731Z,2.40
2018-07-07T18:44:00.078Z,2.10
2018-07-07T18:46:34.486Z,2.50
2018-07-07T18:49:04.185Z,2.20
2018-07-07T18:51:34.301Z,3.40
2018-07-07T18:54:06.209Z,3.80
2018-07-07T18:56:37.640Z,3.10
2018-07-07T18:59:08.346Z,2.43
2018-07-07T19:01:44.324Z,2.27
2018-07-07T19:04:17.260Z,2.03
2018-07-07T19:06:55.517Z,2.40
2018-07-07T19:09:31.439Z,2.53
2018-07-07T19:12:00.802Z,2.73
2018-07-07T19:14:32.819Z,8.80
2018-07-07T19:17:04.270Z,3.37
2018-07-07T19:19:33.435Z,2.30
2018-07-07T19:22:10.586Z,2.30
2018-07-07T19:24:54.274Z,2.67
2018-07-07T19:27:25.240Z,2.47
2018-07-07T19:30:01.715Z,2.60
2018-07-07T19:32:36.819Z,3.80
2018-07-07T19:35:11.301Z,2.87
2018-07-07T19:37:41.287Z,2.20
2018-07-07T19:40:15.531Z,3.10
2018-07-07T19:42:50.129Z,2.53
2018-07-07T19:45:19.085Z,2.50
2018-07-07T19:47:48.792Z,1.90
2018-07-07T19:50:20.894Z,2.20
2018-07-07T19:52:51.126Z,2.03
2018-07-07T19:55:26.375Z,1.53
2018-07-07T19:57:57.309Z,1.43
2018-07-07T20:00:26.443Z,1.70
2018-07-07T20:02:56.608Z,3.37
2018-07-07T20:05:31.428Z,3.17
2018-07-07T20:08:07.402Z,1.80
2018-07-07T20:10:38.415Z,1.60
2018-07-07T20:13:09.579Z,1.63
2018-07-07T20:15:50.211Z,1.50
2018-07-07T20:18:19.958Z,1.53
2018-07-07T20:21:57.982Z,1.63
2018-07-07T20:24:34.061Z,2.57
2018-07-07T20:27:09.371Z,3.20
2018-07-07T20:29:38.162Z,2.30
2018-07-07T20:32:14.805Z,2.30
2018-07-07T20:34:44.930Z,2.17
2018-07-07T20:37:17.482Z,2.40
2018-07-07T20:39:56.231Z,2.20
2018-07-07T20:42:26.755Z,2.10
2018-07-07T20:44:57.157Z,1.90
2018-07-07T20:47:26.615Z,3.30
2018-07-07T20:49:57.919Z,1.90
2018-07-07T20:52:28.348Z,1.73
2018-07-07T20:54:57.928Z,1.47
2018-07-07T20:57:27.429Z,1.53
2018-07-07T20:59:57.166Z,1.97
2018-07-07T21:02:27.368Z,1.50
2018-07-07T21:04:57.330Z,2.00
2018-07-07T21:07:34.424Z,5.00
2018-07-07T21:10:10.022Z,3.50
2018-07-07T21:12:40.348Z,1.87
2018-07-07T21:15:10.255Z,1.60
2018-07-07T21:17:39.651Z,1.83
2018-07-07T21:20:08.469Z,1.67
2018-07-07T21:22:38.188Z,2.00
2018-07-07T21:25:09.460Z,1.47
2018-07-07T21:27:40.152Z,1.60
2018-07-07T21:30:10.840Z,1.90
2018-07-07T21:32:40.348Z,1.60
2018-07-07T21:35:10.851Z,2.20
2018-07-07T21:37:42.045Z,2.00
2018-07-07T21:40:12.667Z,2.10
2018-07-07T21:42:42.879Z,1.50
2018-07-07T21:45:13.605Z,1.83
2018-07-07T21:47:47.408Z,1.70
2018-07-07T21:50:22.094Z,1.67
2018-07-07T21:52:52.491Z,2.67
2018-07-07T21:55:27.162Z,1.97
2018-07-07T21:58:02.734Z,1.43
2018-07-07T22:00:37.693Z,1.90
2018-07-07T22:03:12.653Z,1.80
2018-07-07T22:05:47.739Z,1.93
2018-07-07T22:08:21.889Z,1.70
2018-07-07T22:10:57.149Z,1.80
2018-07-07T22:13:31.126Z,1.97
2018-07-07T22:16:04.934Z,1.60
2018-07-07T22:18:36.152Z,1.93
2018-07-07T22:21:16.745Z,1.63
2018-07-07T22:23:47.892Z,2.00
2018-07-07T22:26:18.813Z,1.80
2018-07-07T22:28:48.874Z,1.73
2018-07-07T22:31:22.145Z,1.77
2018-07-07T22:33:51.645Z,1.80
2018-07-07T22:36:30.645Z,1.93
2018-07-07T22:39:01.412Z,1.50
2018-07-07T22:41:42.177Z,1.73
2018-07-07T22:44:14.652Z,1.57
2018-07-07T22:46:45.070Z,1.53
2018-07-07T22:49:15.437Z,1.10
2018-07-07T22:51:50.694Z,1.40
2018-07-07T22:54:24.726Z,1.40
2018-07-07T22:56:54.925Z,1.47
2018-07-07T22:59:28.908Z,1.13
2018-07-07T23:02:05.482Z,1.40
2018-07-07T23:04:35.956Z,1.30
2018-07-07T23:07:07.162Z,1.20
2018-07-07T23:09:38.585Z,1.40
2018-07-07T23:12:13.172Z,1.57
2018-07-07T23:14:45.941Z,1.17
2018-07-07T23:17:17.051Z,1.60
2018-07-07T23:19:50.972Z,1.40
2018-07-07T23:22:59.986Z,1.40
2018-07-07T23:25:29.661Z,1.20
2018-07-07T23:28:06.363Z,1.47
2018-07-07T23:30:36.304Z,1.53
2018-07-07T23:33:11.338Z,1.20
2018-07-07T23:35:41.282Z,1.50
2018-07-07T23:38:09.736Z,1.50
2018-07-07T23:40:41.226Z,1.90
2018-07-07T23:43:10.565Z,1.40
2018-07-07T23:45:44.428Z,1.13
2018-07-07T23:48:15.946Z,1.33
2018-07-07T23:50:44.716Z,1.40
2018-07-07T23:53:17.584Z,1.20
2018-07-07T23:55:53.289Z,1.53
2018-07-07T23:58:27.631Z,1.00
